sensor_id;sensor_type;location;lat;lon;timestamp;pressure;altitude;pressure_sealevel;temperature;humidity
22649;BME280;11491;41.942;24.220;2022-08-06T00:00:12;89979.25;;;15.93;76.78
22649;BME280;11491;41.942;24.220;2022-08-06T00:02:39;89983.34;;;15.77;77.29
22649;BME280;11491;41.942;24.220;2022-08-06T00:05:06;89983.59;;;15.64;77.87
22649;BME280;11491;41.942;24.220;2022-08-06T00:07:34;89984.50;;;15.76;77.32
22649;BME280;11491;41.942;24.220;2022-08-06T00:10:01;89982.09;;;15.67;77.81
22649;BME280;11491;41.942;24.220;2022-08-06T00:12:29;89992.16;;;15.70;77.96
22649;BME280;11491;41.942;24.220;2022-08-06T00:14:56;89979.88;;;15.73;76.70
22649;BME280;11491;41.942;24.220;2022-08-06T00:17:24;89983.69;;;15.71;76.89
22649;BME280;11491;41.942;24.220;2022-08-06T00:19:51;89978.38;;;15.79;76.36
22649;BME280;11491;41.942;24.220;2022-08-06T00:22:18;89979.19;;;15.83;76.05
22649;BME280;11491;41.942;24.220;2022-08-06T00:24:45;89976.03;;;15.77;76.23
22649;BME280;11491;41.942;24.220;2022-08-06T00:27:11;89981.25;;;15.59;76.91
22649;BME280;11491;41.942;24.220;2022-08-06T00:29:38;89975.81;;;15.52;77.39
22649;BME280;11491;41.942;24.220;2022-08-06T00:32:05;89978.81;;;15.43;78.21
22649;BME280;11491;41.942;24.220;2022-08-06T00:34:34;89971.09;;;15.42;78.62
22649;BME280;11491;41.942;24.220;2022-08-06T00:37:01;89976.06;;;15.40;78.24
22649;BME280;11491;41.942;24.220;2022-08-06T00:39:28;89978.09;;;15.50;77.46
22649;BME280;11491;41.942;24.220;2022-08-06T00:41:54;89976.47;;;15.42;78.22
22649;BME280;11491;41.942;24.220;2022-08-06T00:44:21;89975.34;;;15.43;78.19
22649;BME280;11491;41.942;24.220;2022-08-06T00:46:49;89971.22;;;15.56;77.21
22649;BME280;11491;41.942;24.220;2022-08-06T00:49:15;89975.72;;;15.45;77.63
22649;BME280;11491;41.942;24.220;2022-08-06T00:51:44;89962.53;;;15.33;78.62
22649;BME280;11491;41.942;24.220;2022-08-06T00:54:11;89973.75;;;15.38;77.78
22649;BME280;11491;41.942;24.220;2022-08-06T00:56:37;89969.88;;;15.36;77.67
22649;BME280;11491;41.942;24.220;2022-08-06T00:59:04;89969.09;;;15.35;77.60
22649;BME280;11491;41.942;24.220;2022-08-06T01:01:31;89968.63;;;15.26;78.52
22649;BME280;11491;41.942;24.220;2022-08-06T01:03:58;89968.50;;;15.15;78.75
22649;BME280;11491;41.942;24.220;2022-08-06T01:06:25;89966.06;;;15.03;79.33
22649;BME280;11491;41.942;24.220;2022-08-06T01:08:53;89975.88;;;14.84;80.27
22649;BME280;11491;41.942;24.220;2022-08-06T01:11:20;89964.53;;;15.02;79.41
22649;BME280;11491;41.942;24.220;2022-08-06T01:13:47;89962.16;;;14.93;79.80
22649;BME280;11491;41.942;24.220;2022-08-06T01:16:20;89962.50;;;14.92;80.05
22649;BME280;11491;41.942;24.220;2022-08-06T01:18:55;89973.56;;;14.83;80.81
22649;BME280;11491;41.942;24.220;2022-08-06T01:24:53;89972.50;;;14.91;79.59
22649;BME280;11491;41.942;24.220;2022-08-06T01:27:36;89962.72;;;14.76;80.69
22649;BME280;11491;41.942;24.220;2022-08-06T01:30:07;89968.22;;;14.86;79.91
22649;BME280;11491;41.942;24.220;2022-08-06T01:32:38;89971.28;;;14.85;80.29
22649;BME280;11491;41.942;24.220;2022-08-06T01:35:10;89974.34;;;14.83;80.42
22649;BME280;11491;41.942;24.220;2022-08-06T01:37:43;89973.63;;;14.90;79.50
22649;BME280;11491;41.942;24.220;2022-08-06T01:40:16;89969.06;;;14.94;79.39
22649;BME280;11491;41.942;24.220;2022-08-06T01:42:45;89969.84;;;14.61;81.03
22649;BME280;11491;41.942;24.220;2022-08-06T01:45:15;89965.69;;;14.67;81.52
22649;BME280;11491;41.942;24.220;2022-08-06T01:47:47;89965.78;;;14.74;81.71
22649;BME280;11491;41.942;24.220;2022-08-06T01:50:19;89971.47;;;14.69;81.39
22649;BME280;11491;41.942;24.220;2022-08-06T01:52:49;89968.22;;;14.86;79.87
22649;BME280;11491;41.942;24.220;2022-08-06T01:55:18;89971.94;;;14.75;80.84
22649;BME280;11491;41.942;24.220;2022-08-06T01:57:50;89965.00;;;14.74;81.22
22649;BME280;11491;41.942;24.220;2022-08-06T02:00:18;89962.78;;;14.83;80.48
22649;BME280;11491;41.942;24.220;2022-08-06T02:02:46;89962.16;;;14.93;79.70
22649;BME280;11491;41.942;24.220;2022-08-06T02:05:17;89952.19;;;14.97;79.73
22649;BME280;11491;41.942;24.220;2022-08-06T02:07:48;89953.41;;;14.70;81.62
22649;BME280;11491;41.942;24.220;2022-08-06T02:10:18;89968.97;;;14.83;81.45
22649;BME280;11491;41.942;24.220;2022-08-06T02:12:49;89959.00;;;14.88;80.88
22649;BME280;11491;41.942;24.220;2022-08-06T02:15:20;89957.47;;;14.86;80.84
22649;BME280;11491;41.942;24.220;2022-08-06T02:17:51;89946.44;;;14.99;79.70
22649;BME280;11491;41.942;24.220;2022-08-06T02:20:24;89954.63;;;15.10;79.16
22649;BME280;11491;41.942;24.220;2022-08-06T02:22:53;89953.84;;;15.09;78.87
22649;BME280;11491;41.942;24.220;2022-08-06T02:25:22;89947.81;;;14.85;79.64
22649;BME280;11491;41.942;24.220;2022-08-06T02:27:53;89951.31;;;14.90;80.23
22649;BME280;11491;41.942;24.220;2022-08-06T02:30:21;89952.91;;;14.91;80.96
22649;BME280;11491;41.942;24.220;2022-08-06T02:32:49;89953.63;;;14.88;80.48
22649;BME280;11491;41.942;24.220;2022-08-06T02:35:16;89945.94;;;14.90;80.60
22649;BME280;11491;41.942;24.220;2022-08-06T02:37:47;89949.72;;;14.81;80.93
22649;BME280;11491;41.942;24.220;2022-08-06T02:40:19;89935.75;;;14.72;80.85
22649;BME280;11491;41.942;24.220;2022-08-06T02:42:50;89947.09;;;14.89;80.92
22649;BME280;11491;41.942;24.220;2022-08-06T02:45:25;89942.81;;;14.84;81.04
22649;BME280;11491;41.942;24.220;2022-08-06T02:47:57;89955.84;;;14.78;81.17
22649;BME280;11491;41.942;24.220;2022-08-06T02:50:31;89935.41;;;14.74;80.99
22649;BME280;11491;41.942;24.220;2022-08-06T02:53:01;89921.97;;;14.43;81.93
22649;BME280;11491;41.942;24.220;2022-08-06T02:55:30;89950.03;;;14.76;81.40
22649;BME280;11491;41.942;24.220;2022-08-06T02:58:04;89945.06;;;14.78;81.44
22649;BME280;11491;41.942;24.220;2022-08-06T03:00:36;89923.19;;;14.50;81.62
22649;BME280;11491;41.942;24.220;2022-08-06T03:03:06;89944.25;;;14.74;81.34
22649;BME280;11491;41.942;24.220;2022-08-06T03:05:34;89944.16;;;14.67;81.34
22649;BME280;11491;41.942;24.220;2022-08-06T03:08:04;89942.41;;;14.82;80.52
22649;BME280;11491;41.942;24.220;2022-08-06T03:10:33;89936.91;;;14.71;79.88
22649;BME280;11491;41.942;24.220;2022-08-06T03:13:02;89946.53;;;14.72;80.98
22649;BME280;11491;41.942;24.220;2022-08-06T03:15:34;89942.72;;;14.73;80.92
22649;BME280;11491;41.942;24.220;2022-08-06T03:18:03;89946.53;;;14.72;80.93
22649;BME280;11491;41.942;24.220;2022-08-06T03:20:32;89948.81;;;14.70;80.41
22649;BME280;11491;41.942;24.220;2022-08-06T03:23:03;89948.56;;;14.82;79.48
22649;BME280;11491;41.942;24.220;2022-08-06T03:25:32;89935.25;;;14.63;79.67
22649;BME280;11491;41.942;24.220;2022-08-06T03:27:59;89949.63;;;14.74;79.69
22649;BME280;11491;41.942;24.220;2022-08-06T03:30:27;89950.03;;;14.76;79.66
22649;BME280;11491;41.942;24.220;2022-08-06T03:32:56;89951.81;;;14.65;80.62
22649;BME280;11491;41.942;24.220;2022-08-06T03:35:24;89954.91;;;14.67;79.75
22649;BME280;11491;41.942;24.220;2022-08-06T03:37:52;89958.44;;;14.41;81.02
22649;BME280;11491;41.942;24.220;2022-08-06T03:40:21;89961.88;;;14.41;81.19
22649;BME280;11491;41.942;24.220;2022-08-06T03:42:49;89957.72;;;14.48;81.57
22649;BME280;11491;41.942;24.220;2022-08-06T03:45:16;89959.19;;;14.41;82.36
22649;BME280;11491;41.942;24.220;2022-08-06T03:47:51;89949.72;;;14.21;83.40
22649;BME280;11491;41.942;24.220;2022-08-06T03:50:22;89953.81;;;14.41;82.70
22649;BME280;11491;41.942;24.220;2022-08-06T03:52:54;89959.00;;;14.54;82.00
22649;BME280;11491;41.942;24.220;2022-08-06T03:55:26;89956.19;;;14.47;82.14
22649;BME280;11491;41.942;24.220;2022-08-06T03:58:02;89963.84;;;14.44;82.39
22649;BME280;11491;41.942;24.220;2022-08-06T04:00:34;89964.69;;;14.49;82.94
22649;BME280;11491;41.942;24.220;2022-08-06T04:03:03;89968.03;;;14.69;81.76
22649;BME280;11491;41.942;24.220;2022-08-06T04:05:33;89971.16;;;14.74;81.38
22649;BME280;11491;41.942;24.220;2022-08-06T04:08:04;89968.78;;;14.69;82.14
22649;BME280;11491;41.942;24.220;2022-08-06T04:10:36;89970.47;;;14.81;81.59
22649;BME280;11491;41.942;24.220;2022-08-06T04:13:04;89965.03;;;14.77;82.29
22649;BME280;11491;41.942;24.220;2022-08-06T04:15:32;89966.28;;;14.83;82.16
22649;BME280;11491;41.942;24.220;2022-08-06T04:17:59;89967.59;;;15.00;81.55
22649;BME280;11491;41.942;24.220;2022-08-06T04:20:27;89966.63;;;15.16;80.80
22649;BME280;11491;41.942;24.220;2022-08-06T04:22:58;89961.69;;;15.25;80.25
22649;BME280;11491;41.942;24.220;2022-08-06T04:25:27;89971.84;;;15.39;80.04
22649;BME280;11491;41.942;24.220;2022-08-06T04:27:55;89963.91;;;15.53;79.53
22649;BME280;11491;41.942;24.220;2022-08-06T04:30:24;89965.09;;;15.59;79.38
22649;BME280;11491;41.942;24.220;2022-08-06T04:32:53;89964.09;;;15.75;79.10
22649;BME280;11491;41.942;24.220;2022-08-06T04:35:21;89966.91;;;15.89;78.58
22649;BME280;11491;41.942;24.220;2022-08-06T04:37:48;89961.16;;;15.94;78.89
22649;BME280;11491;41.942;24.220;2022-08-06T04:40:17;89970.09;;;16.05;79.08
22649;BME280;11491;41.942;24.220;2022-08-06T04:42:44;89967.13;;;16.18;78.90
22649;BME280;11491;41.942;24.220;2022-08-06T04:45:11;89963.31;;;16.26;78.17
22649;BME280;11491;41.942;24.220;2022-08-06T04:47:38;89968.03;;;16.43;77.42
22649;BME280;11491;41.942;24.220;2022-08-06T04:50:06;89971.94;;;16.56;77.14
22649;BME280;11491;41.942;24.220;2022-08-06T04:52:33;89984.03;;;16.77;76.40
22649;BME280;11491;41.942;24.220;2022-08-06T04:55:00;89975.25;;;16.98;75.93
22649;BME280;11491;41.942;24.220;2022-08-06T04:57:28;89978.34;;;17.04;75.64
22649;BME280;11491;41.942;24.220;2022-08-06T04:59:55;89981.50;;;17.20;75.34
22649;BME280;11491;41.942;24.220;2022-08-06T05:02:22;89984.63;;;17.33;74.54
22649;BME280;11491;41.942;24.220;2022-08-06T05:04:49;89975.00;;;17.50;74.04
22649;BME280;11491;41.942;24.220;2022-08-06T05:07:22;89975.81;;;17.68;72.70
22649;BME280;11491;41.942;24.220;2022-08-06T05:09:50;89969.25;;;17.73;72.94
22649;BME280;11491;41.942;24.220;2022-08-06T05:12:21;89981.66;;;17.99;72.61
22649;BME280;11491;41.942;24.220;2022-08-06T05:14:54;89970.44;;;18.15;71.61
22649;BME280;11491;41.942;24.220;2022-08-06T05:17:25;89968.50;;;18.29;71.78
22649;BME280;11491;41.942;24.220;2022-08-06T05:19:58;89970.00;;;18.52;71.39
22649;BME280;11491;41.942;24.220;2022-08-06T05:22:27;89973.81;;;18.72;70.54
22649;BME280;11491;41.942;24.220;2022-08-06T05:24:58;89969.91;;;18.95;69.72
22649;BME280;11491;41.942;24.220;2022-08-06T05:27:25;89976.06;;;19.13;69.07
22649;BME280;11491;41.942;24.220;2022-08-06T05:29:55;89966.66;;;19.36;68.27
22649;BME280;11491;41.942;24.220;2022-08-06T05:32:22;89955.31;;;19.55;66.79
22649;BME280;11491;41.942;24.220;2022-08-06T05:34:49;89953.28;;;19.67;66.02
22649;BME280;11491;41.942;24.220;2022-08-06T05:37:15;89967.91;;;19.87;66.72
22649;BME280;11491;41.942;24.220;2022-08-06T05:39:42;89969.31;;;20.06;66.62
22649;BME280;11491;41.942;24.220;2022-08-06T05:42:09;89966.03;;;20.29;66.54
22649;BME280;11491;41.942;24.220;2022-08-06T05:44:36;89965.84;;;20.51;65.90
22649;BME280;11491;41.942;24.220;2022-08-06T05:47:09;89958.69;;;20.71;65.43
22649;BME280;11491;41.942;24.220;2022-08-06T05:49:42;89941.50;;;20.81;65.31
22649;BME280;11491;41.942;24.220;2022-08-06T05:52:13;89963.75;;;21.07;64.03
22649;BME280;11491;41.942;24.220;2022-08-06T05:54:47;89963.69;;;21.11;65.25
22649;BME280;11491;41.942;24.220;2022-08-06T05:57:19;89952.59;;;21.28;64.46
22649;BME280;11491;41.942;24.220;2022-08-06T05:59:50;89958.56;;;21.50;64.22
22649;BME280;11491;41.942;24.220;2022-08-06T06:02:20;89950.53;;;21.70;63.76
22649;BME280;11491;41.942;24.220;2022-08-06T06:04:48;89954.94;;;21.88;64.03
22649;BME280;11491;41.942;24.220;2022-08-06T06:07:16;89956.50;;;21.89;62.52
22649;BME280;11491;41.942;24.220;2022-08-06T06:09:44;89924.75;;;21.79;62.63
22649;BME280;11491;41.942;24.220;2022-08-06T06:12:11;89947.34;;;22.03;64.06
22649;BME280;11491;41.942;24.220;2022-08-06T06:14:41;89945.16;;;22.18;63.28
22649;BME280;11491;41.942;24.220;2022-08-06T06:17:33;89952.56;;;22.44;62.13
22649;BME280;11491;41.942;24.220;2022-08-06T06:20:11;89942.13;;;22.63;60.72
22649;BME280;11491;41.942;24.220;2022-08-06T06:22:46;89935.56;;;22.80;59.42
22649;BME280;11491;41.942;24.220;2022-08-06T06:25:21;89947.38;;;23.17;57.78
22649;BME280;11491;41.942;24.220;2022-08-06T06:27:55;89940.66;;;23.41;54.97
22649;BME280;11491;41.942;24.220;2022-08-06T06:30:27;89945.97;;;23.49;56.67
22649;BME280;11491;41.942;24.220;2022-08-06T06:33:06;89940.47;;;23.69;52.98
22649;BME280;11491;41.942;24.220;2022-08-06T06:35:43;89942.13;;;23.82;53.31
22649;BME280;11491;41.942;24.220;2022-08-06T06:38:23;89942.19;;;23.99;52.32
22649;BME280;11491;41.942;24.220;2022-08-06T06:40:57;89924.78;;;23.93;51.75
22649;BME280;11491;41.942;24.220;2022-08-06T06:43:32;89937.66;;;24.08;53.30
22649;BME280;11491;41.942;24.220;2022-08-06T06:46:04;89929.41;;;24.28;53.44
22649;BME280;11491;41.942;24.220;2022-08-06T06:48:37;89930.44;;;24.51;53.23
22649;BME280;11491;41.942;24.220;2022-08-06T06:51:09;89925.22;;;24.73;53.98
22649;BME280;11491;41.942;24.220;2022-08-06T06:53:42;89923.97;;;24.90;52.13
22649;BME280;11491;41.942;24.220;2022-08-06T06:56:13;89925.22;;;25.02;51.39
22649;BME280;11491;41.942;24.220;2022-08-06T06:58:46;89928.31;;;25.04;51.39
22649;BME280;11491;41.942;24.220;2022-08-06T07:01:15;89919.75;;;25.02;49.99
22649;BME280;11491;41.942;24.220;2022-08-06T07:03:45;89921.34;;;24.87;50.10
22649;BME280;11491;41.942;24.220;2022-08-06T07:06:14;89927.09;;;24.27;51.78
22649;BME280;11491;41.942;24.220;2022-08-06T07:08:46;89925.47;;;24.29;52.60
22649;BME280;11491;41.942;24.220;2022-08-06T07:11:19;89927.13;;;24.60;51.55
22649;BME280;11491;41.942;24.220;2022-08-06T07:13:48;89927.13;;;24.89;51.06
22649;BME280;11491;41.942;24.220;2022-08-06T07:16:18;89923.88;;;24.94;49.97
22649;BME280;11491;41.942;24.220;2022-08-06T07:18:49;89920.69;;;24.66;49.94
22649;BME280;11491;41.942;24.220;2022-08-06T07:21:17;89921.44;;;24.67;50.14
22649;BME280;11491;41.942;24.220;2022-08-06T07:23:45;89926.28;;;24.92;50.34
22649;BME280;11491;41.942;24.220;2022-08-06T07:26:17;89915.47;;;25.18;49.96
22649;BME280;11491;41.942;24.220;2022-08-06T07:28:45;89917.06;;;25.44;51.94
22649;BME280;11491;41.942;24.220;2022-08-06T07:31:13;89914.91;;;25.65;51.44
22649;BME280;11491;41.942;24.220;2022-08-06T07:33:43;89913.44;;;25.89;48.61
22649;BME280;11491;41.942;24.220;2022-08-06T07:36:15;89897.88;;;26.12;48.38
22649;BME280;11491;41.942;24.220;2022-08-06T07:38:44;89914.06;;;26.45;48.99
22649;BME280;11491;41.942;24.220;2022-08-06T07:41:12;89916.22;;;26.75;47.37
22649;BME280;11491;41.942;24.220;2022-08-06T07:43:45;89905.41;;;26.94;47.06
22649;BME280;11491;41.942;24.220;2022-08-06T07:46:13;89915.91;;;27.08;45.92
22649;BME280;11491;41.942;24.220;2022-08-06T07:48:46;89904.94;;;27.30;45.42
22649;BME280;11491;41.942;24.220;2022-08-06T07:51:16;89910.94;;;27.38;46.15
22649;BME280;11491;41.942;24.220;2022-08-06T07:53:45;89920.00;;;27.47;43.36
22649;BME280;11491;41.942;24.220;2022-08-06T07:56:12;89908.25;;;27.69;43.41
22649;BME280;11491;41.942;24.220;2022-08-06T07:58:40;89920.72;;;27.83;43.62
22649;BME280;11491;41.942;24.220;2022-08-06T08:01:08;89930.81;;;27.64;43.16
22649;BME280;11491;41.942;24.220;2022-08-06T08:03:36;89915.41;;;27.66;44.44
22649;BME280;11491;41.942;24.220;2022-08-06T08:06:22;89904.44;;;27.66;43.00
22649;BME280;11491;41.942;24.220;2022-08-06T08:08:54;89912.50;;;27.83;44.57
22649;BME280;11491;41.942;24.220;2022-08-06T08:11:22;89905.19;;;27.89;42.39
22649;BME280;11491;41.942;24.220;2022-08-06T08:13:52;89906.09;;;27.86;42.28
22649;BME280;11491;41.942;24.220;2022-08-06T08:16:19;89909.78;;;27.92;42.63
22649;BME280;11491;41.942;24.220;2022-08-06T08:18:47;89913.09;;;27.87;41.65
22649;BME280;11491;41.942;24.220;2022-08-06T08:21:14;89915.84;;;27.65;42.47
22649;BME280;11491;41.942;24.220;2022-08-06T08:23:44;89904.56;;;27.63;43.60
22649;BME280;11491;41.942;24.220;2022-08-06T08:26:12;89905.38;;;27.73;42.35
22649;BME280;11491;41.942;24.220;2022-08-06T08:28:39;89880.94;;;27.65;42.54
22649;BME280;11491;41.942;24.220;2022-08-06T08:31:06;89913.00;;;27.68;43.61
22649;BME280;11491;41.942;24.220;2022-08-06T08:33:34;89912.72;;;27.76;42.66
22649;BME280;11491;41.942;24.220;2022-08-06T08:36:01;89905.19;;;27.89;43.53
22649;BME280;11491;41.942;24.220;2022-08-06T08:38:30;89911.06;;;28.00;40.90
22649;BME280;11491;41.942;24.220;2022-08-06T08:41:01;89905.22;;;27.45;41.99
22649;BME280;11491;41.942;24.220;2022-08-06T08:43:34;89904.94;;;27.52;43.18
22649;BME280;11491;41.942;24.220;2022-08-06T08:46:01;89901.63;;;27.57;43.08
22649;BME280;11491;41.942;24.220;2022-08-06T08:48:29;89912.91;;;27.81;44.24
22649;BME280;11491;41.942;24.220;2022-08-06T08:50:59;89915.28;;;27.92;45.10
22649;BME280;11491;41.942;24.220;2022-08-06T08:53:36;89911.13;;;28.19;43.90
22649;BME280;11491;41.942;24.220;2022-08-06T08:56:05;89908.16;;;28.44;41.10
22649;BME280;11491;41.942;24.220;2022-08-06T08:58:33;89910.81;;;28.57;42.60
22649;BME280;11491;41.942;24.220;2022-08-06T09:01:04;89909.19;;;28.78;42.29
22649;BME280;11491;41.942;24.220;2022-08-06T09:03:34;89915.53;;;28.56;42.73
22649;BME280;11491;41.942;24.220;2022-08-06T09:06:02;89914.94;;;28.62;40.80
22649;BME280;11491;41.942;24.220;2022-08-06T09:08:30;89919.88;;;28.76;41.78
22649;BME280;11491;41.942;24.220;2022-08-06T09:10:57;89932.03;;;28.47;40.44
22649;BME280;11491;41.942;24.220;2022-08-06T09:13:26;89920.88;;;28.51;40.17
22649;BME280;11491;41.942;24.220;2022-08-06T09:15:54;89911.59;;;28.67;39.19
22649;BME280;11491;41.942;24.220;2022-08-06T09:18:23;89909.19;;;28.78;42.25
22649;BME280;11491;41.942;24.220;2022-08-06T09:20:50;89917.81;;;29.08;42.35
22649;BME280;11491;41.942;24.220;2022-08-06T09:23:18;89918.13;;;29.10;41.67
22649;BME280;11491;41.942;24.220;2022-08-06T09:25:46;89910.16;;;29.21;39.92
22649;BME280;11491;41.942;24.220;2022-08-06T09:28:29;89913.19;;;29.41;39.80
22649;BME280;11491;41.942;24.220;2022-08-06T09:30:58;89909.25;;;29.42;40.19
22649;BME280;11491;41.942;24.220;2022-08-06T09:33:25;89902.16;;;28.95;38.95
22649;BME280;11491;41.942;24.220;2022-08-06T09:36:00;89909.13;;;28.50;41.31
22649;BME280;11491;41.942;24.220;2022-08-06T09:38:27;89909.94;;;28.29;40.15
22649;BME280;11491;41.942;24.220;2022-08-06T09:41:05;89905.97;;;28.30;42.98
22649;BME280;11491;41.942;24.220;2022-08-06T09:43:35;89898.72;;;28.54;41.01
22649;BME280;11491;41.942;24.220;2022-08-06T09:46:03;89901.94;;;28.53;42.11
22649;BME280;11491;41.942;24.220;2022-08-06T09:48:30;89905.16;;;28.51;40.76
22649;BME280;11491;41.942;24.220;2022-08-06T09:50:57;89902.06;;;28.49;42.81
22649;BME280;11491;41.942;24.220;2022-08-06T09:53:24;89908.88;;;28.76;39.92
22649;BME280;11491;41.942;24.220;2022-08-06T09:55:55;89904.06;;;29.17;41.26
22649;BME280;11491;41.942;24.220;2022-08-06T09:58:27;89873.44;;;29.33;39.41
22649;BME280;11491;41.942;24.220;2022-08-06T10:00:56;89909.38;;;29.57;38.93
22649;BME280;11491;41.942;24.220;2022-08-06T10:03:23;89909.84;;;29.37;40.51
22649;BME280;11491;41.942;24.220;2022-08-06T10:06:03;89895.78;;;29.35;39.88
22649;BME280;11491;41.942;24.220;2022-08-06T10:08:31;89895.47;;;29.52;40.39
22649;BME280;11491;41.942;24.220;2022-08-06T10:10:57;89889.00;;;29.92;38.26
22649;BME280;11491;41.942;24.220;2022-08-06T10:13:29;89876.72;;;30.02;36.74
22649;BME280;11491;41.942;24.220;2022-08-06T10:16:00;89886.41;;;29.60;38.53
22649;BME280;11491;41.942;24.220;2022-08-06T10:18:34;89881.69;;;29.70;36.84
22649;BME280;11491;41.942;24.220;2022-08-06T10:21:05;89874.97;;;29.62;37.15
22649;BME280;11491;41.942;24.220;2022-08-06T10:23:33;89876.63;;;29.78;37.93
22649;BME280;11491;41.942;24.220;2022-08-06T10:26:03;89868.53;;;29.74;37.71
22649;BME280;11491;41.942;24.220;2022-08-06T10:28:32;89866.88;;;30.10;40.56
22649;BME280;11491;41.942;24.220;2022-08-06T10:31:02;89876.09;;;29.98;38.06
22649;BME280;11491;41.942;24.220;2022-08-06T10:33:32;89872.47;;;29.92;37.24
22649;BME280;11491;41.942;24.220;2022-08-06T10:36:03;89883.25;;;29.34;37.79
22649;BME280;11491;41.942;24.220;2022-08-06T10:38:34;89871.16;;;29.50;39.30
22649;BME280;11491;41.942;24.220;2022-08-06T10:41:05;89873.41;;;29.61;38.16
22649;BME280;11491;41.942;24.220;2022-08-06T10:43:34;89868.31;;;29.96;39.85
22649;BME280;11491;41.942;24.220;2022-08-06T10:46:04;89871.75;;;30.24;38.13
22649;BME280;11491;41.942;24.220;2022-08-06T10:48:32;89874.25;;;30.04;35.30
22649;BME280;11491;41.942;24.220;2022-08-06T10:51:00;89871.44;;;30.13;36.38
22649;BME280;11491;41.942;24.220;2022-08-06T10:53:27;89873.97;;;29.93;37.10
22649;BME280;11491;41.942;24.220;2022-08-06T10:55:55;89870.34;;;29.87;38.11
22649;BME280;11491;41.942;24.220;2022-08-06T10:58:22;89864.25;;;29.55;38.03
22649;BME280;11491;41.942;24.220;2022-08-06T11:00:51;89861.38;;;29.03;38.99
22649;BME280;11491;41.942;24.220;2022-08-06T11:03:24;89876.78;;;28.73;38.23
22649;BME280;11491;41.942;24.220;2022-08-06T11:06:02;89871.19;;;28.36;39.23
22649;BME280;11491;41.942;24.220;2022-08-06T11:08:45;89879.09;;;28.34;40.22
22649;BME280;11491;41.942;24.220;2022-08-06T11:11:37;89877.81;;;28.07;40.90
22649;BME280;11491;41.942;24.220;2022-08-06T11:14:09;89878.44;;;28.11;40.84
22649;BME280;11491;41.942;24.220;2022-08-06T11:16:36;89878.00;;;28.13;40.27
22649;BME280;11491;41.942;24.220;2022-08-06T11:19:06;89874.72;;;27.96;39.59
22649;BME280;11491;41.942;24.220;2022-08-06T11:21:36;89878.78;;;28.23;39.25
22649;BME280;11491;41.942;24.220;2022-08-06T11:24:04;89888.53;;;28.73;39.82
22649;BME280;11491;41.942;24.220;2022-08-06T11:26:33;89874.22;;;28.97;40.06
22649;BME280;11491;41.942;24.220;2022-08-06T11:29:03;89882.47;;;29.43;38.49
22649;BME280;11491;41.942;24.220;2022-08-06T11:31:36;89867.00;;;29.55;37.68
22649;BME280;11491;41.942;24.220;2022-08-06T11:34:06;89870.53;;;29.46;39.13
22649;BME280;11491;41.942;24.220;2022-08-06T11:36:46;89863.94;;;29.53;38.33
22649;BME280;11491;41.942;24.220;2022-08-06T11:39:14;89859.69;;;28.96;39.06
22649;BME280;11491;41.942;24.220;2022-08-06T11:41:46;89862.31;;;29.18;39.46
22649;BME280;11491;41.942;24.220;2022-08-06T11:44:14;89771.97;;;28.89;37.07
22649;BME280;11491;41.942;24.220;2022-08-06T11:46:43;89863.94;;;29.71;37.30
22649;BME280;11491;41.942;24.220;2022-08-06T11:49:20;89851.69;;;29.63;36.65
22649;BME280;11491;41.942;24.220;2022-08-06T11:51:49;89857.09;;;30.09;37.81
22649;BME280;11491;41.942;24.220;2022-08-06T11:54:18;89849.59;;;30.43;36.97
22649;BME280;11491;41.942;24.220;2022-08-06T11:57:20;89857.22;;;30.48;36.89
22649;BME280;11491;41.942;24.220;2022-08-06T12:00:15;89859.63;;;30.55;35.86
22649;BME280;11491;41.942;24.220;2022-08-06T12:03:00;89862.50;;;30.37;34.18
22649;BME280;11491;41.942;24.220;2022-08-06T12:05:42;89855.88;;;30.43;35.54
22649;BME280;11491;41.942;24.220;2022-08-06T12:08:14;89843.91;;;30.70;36.39
22649;BME280;11491;41.942;24.220;2022-08-06T12:13:43;89838.34;;;31.58;36.94
22649;BME280;11491;41.942;24.220;2022-08-06T12:16:29;89829.22;;;31.81;32.89
22649;BME280;11491;41.942;24.220;2022-08-06T12:18:56;89833.41;;;31.47;33.35
22649;BME280;11491;41.942;24.220;2022-08-06T12:21:24;89778.50;;;31.25;32.85
22649;BME280;11491;41.942;24.220;2022-08-06T12:23:51;89822.31;;;31.32;33.70
22649;BME280;11491;41.942;24.220;2022-08-06T12:26:19;89837.06;;;30.42;34.15
22649;BME280;11491;41.942;24.220;2022-08-06T12:28:46;89837.28;;;29.87;36.15
22649;BME280;11491;41.942;24.220;2022-08-06T12:31:13;89823.28;;;29.48;37.12
22649;BME280;11491;41.942;24.220;2022-08-06T12:33:53;89824.22;;;29.45;36.76
22649;BME280;11491;41.942;24.220;2022-08-06T12:36:20;89820.69;;;29.44;37.98
22649;BME280;11491;41.942;24.220;2022-08-06T12:38:54;89817.25;;;29.77;36.43
22649;BME280;11491;41.942;24.220;2022-08-06T12:41:22;89804.19;;;30.53;38.22
22649;BME280;11491;41.942;24.220;2022-08-06T12:43:48;89823.81;;;31.03;38.37
22649;BME280;11491;41.942;24.220;2022-08-06T12:46:15;89808.59;;;31.23;38.25
22649;BME280;11491;41.942;24.220;2022-08-06T12:48:45;89816.47;;;31.39;35.03
22649;BME280;11491;41.942;24.220;2022-08-06T12:51:13;89817.81;;;31.20;34.50
22649;BME280;11491;41.942;24.220;2022-08-06T12:53:41;89826.50;;;30.64;35.39
22649;BME280;11491;41.942;24.220;2022-08-06T12:56:10;89816.09;;;30.02;36.44
22649;BME280;11491;41.942;24.220;2022-08-06T12:58:39;89824.13;;;29.81;37.39
22649;BME280;11491;41.942;24.220;2022-08-06T13:01:08;89821.41;;;29.63;36.94
22649;BME280;11491;41.942;24.220;2022-08-06T13:03:40;89814.91;;;29.05;38.37
22649;BME280;11491;41.942;24.220;2022-08-06T13:06:09;89810.78;;;28.73;39.57
22649;BME280;11491;41.942;24.220;2022-08-06T13:08:36;89810.41;;;28.34;39.80
22649;BME280;11491;41.942;24.220;2022-08-06T13:11:04;89816.06;;;28.40;41.54